Time,TemperatureF,DewpointF,PressureIn,WindDirection,WindDirectionDegrees,WindSpeedMPH,WindSpeedGustMPH,Humidity,HourlyPrecipIn,Conditions,Clouds,dailyrainin,SoftwareType,DateUTC
2013-02-19 00:00:00,34.4,21.2,30.20,SW,223,6.0,9.0,58,0.00,,,0.00,VWS V14.01,2013-02-19 05:00:00,
2013-02-19 00:01:00,34.7,21.9,30.20,SSW,208,9.0,10.0,59,0.00,,,0.00,VWS V14.01,2013-02-19 05:01:00,
2013-02-19 00:06:00,35.0,22.9,30.20,South,188,9.0,11.0,61,0.00,,,0.00,VWS V14.01,2013-02-19 05:06:00,
2013-02-19 00:11:00,35.4,24.1,30.20,SSW,211,7.0,11.0,63,0.00,,,0.00,VWS V14.01,2013-02-19 05:11:00,
2013-02-19 00:16:00,35.6,25.4,30.20,South,185,10.0,11.0,66,0.00,,,0.00,VWS V14.01,2013-02-19 05:16:00,
2013-02-19 00:21:00,35.8,26.3,30.20,SSW,192,10.0,12.0,68,0.00,,,0.00,VWS V14.01,2013-02-19 05:21:00,
2013-02-19 00:26:00,36.1,26.6,30.20,SSW,211,3.0,12.0,68,0.00,,,0.00,VWS V14.01,2013-02-19 05:26:00,
2013-02-19 00:30:00,37.5,30.3,30.17,SSW,192,7.0,17.0,75,0.00,,,0.00,VWS V14.01,2013-02-19 05:30:00,
2013-02-19 00:31:00,36.3,26.4,30.19,SW,221,5.0,10.0,67,0.00,,,0.00,VWS V14.01,2013-02-19 05:31:00,
2013-02-19 00:36:00,36.5,26.2,30.19,SW,224,5.0,12.0,66,0.00,,,0.00,VWS V14.01,2013-02-19 05:36:00,
2013-02-19 00:41:00,36.6,26.3,30.19,SSW,209,8.0,13.0,66,0.00,,,0.00,VWS V14.01,2013-02-19 05:41:00,
2013-02-19 00:46:00,36.6,26.7,30.19,SSW,202,4.0,13.0,67,0.00,,,0.00,VWS V14.01,2013-02-19 05:46:00,
2013-02-19 00:51:00,36.6,27.0,30.19,SSW,211,8.0,13.0,68,0.00,,,0.00,VWS V14.01,2013-02-19 05:51:00,
2013-02-19 00:56:00,36.8,27.6,30.19,SSW,198,7.0,13.0,69,0.00,,,0.00,VWS V14.01,2013-02-19 05:56:00,
2013-02-19 01:00:00,37.7,31.8,30.16,SSW,202,8.0,16.0,79,0.00,,,0.00,VWS V14.01,2013-02-19 06:00:00,
2013-02-19 01:01:00,36.8,28.0,30.18,South,176,8.0,10.0,70,0.00,,,0.00,VWS V14.01,2013-02-19 06:01:00,
2013-02-19 01:06:00,36.9,28.4,30.18,South,188,10.0,14.0,71,0.00,,,0.00,VWS V14.01,2013-02-19 06:06:00,
2013-02-19 01:11:00,37.0,28.5,30.18,SSW,199,9.0,14.0,71,0.00,,,0.00,VWS V14.01,2013-02-19 06:11:00,
2013-02-19 01:16:00,37.1,28.9,30.18,South,175,6.0,16.0,72,0.00,,,0.00,VWS V14.01,2013-02-19 06:16:00,
2013-02-19 01:21:00,37.2,29.4,30.17,SSW,205,7.0,16.0,73,0.00,,,0.00,VWS V14.01,2013-02-19 06:21:00,
2013-02-19 01:27:00,37.4,29.9,30.17,SSW,198,7.0,16.0,74,0.00,,,0.00,VWS V14.01,2013-02-19 06:27:00,
2013-02-19 01:30:00,38.5,32.2,30.13,SSE,167,16.0,20.0,78,0.00,,,0.00,VWS V14.01,2013-02-19 06:30:00,
2013-02-19 01:32:00,37.4,30.2,30.17,SSE,167,6.0,13.0,75,0.00,,,0.00,VWS V14.01,2013-02-19 06:32:00,
2013-02-19 01:37:00,37.5,31.0,30.17,South,183,9.0,16.0,77,0.00,,,0.00,VWS V14.01,2013-02-19 06:37:00,
2013-02-19 01:42:00,37.6,31.4,30.17,SW,214,6.0,16.0,78,0.00,,,0.00,VWS V14.01,2013-02-19 06:42:00,
2013-02-19 01:47:00,37.6,31.7,30.17,SSW,196,9.0,16.0,79,0.00,,,0.00,VWS V14.01,2013-02-19 06:47:00,
2013-02-19 01:52:00,37.6,31.7,30.16,South,173,11.0,16.0,79,0.00,,,0.00,VWS V14.01,2013-02-19 06:52:00,
2013-02-19 01:57:00,37.6,31.7,30.16,South,177,13.0,16.0,79,0.00,,,0.00,VWS V14.01,2013-02-19 06:57:00,
2013-02-19 02:00:00,39.1,32.8,30.12,SSW,205,11.0,20.0,78,0.00,,,0.00,VWS V14.01,2013-02-19 07:00:00,
2013-02-19 02:02:00,37.7,31.8,30.16,South,183,10.0,15.0,79,0.00,,,0.00,VWS V14.01,2013-02-19 07:02:00,
2013-02-19 02:07:00,37.9,32.0,30.15,SSW,200,8.0,15.0,79,0.00,,,0.00,VWS V14.01,2013-02-19 07:07:00,
2013-02-19 02:12:00,37.9,31.7,30.15,SW,223,10.0,15.0,78,0.00,,,0.00,VWS V14.01,2013-02-19 07:12:00,
2013-02-19 02:17:00,38.2,32.0,30.14,SSW,198,14.0,16.0,78,0.00,,,0.00,VWS V14.01,2013-02-19 07:17:00,
2013-02-19 02:22:00,38.3,32.0,30.14,South,187,9.0,20.0,78,0.00,,,0.00,VWS V14.01,2013-02-19 07:22:00,
2013-02-19 02:27:00,38.4,32.2,30.13,SSW,195,13.0,20.0,78,0.00,,,0.00,VWS V14.01,2013-02-19 07:27:00,
2013-02-19 02:30:00,39.0,33.4,30.11,SW,223,15.0,18.0,80,0.00,,,0.00,VWS V14.01,2013-02-19 07:30:00,
2013-02-19 02:32:00,38.6,32.3,30.13,SSW,213,11.0,19.0,78,0.00,,,0.00,VWS V14.01,2013-02-19 07:32:00,
2013-02-19 02:38:00,38.7,32.4,30.12,SSW,192,11.0,20.0,78,0.00,,,0.00,VWS V14.01,2013-02-19 07:38:00,
2013-02-19 02:43:00,38.8,32.5,30.12,SSW,192,14.0,20.0,78,0.00,,,0.00,VWS V14.01,2013-02-19 07:43:00,
2013-02-19 02:48:00,38.9,32.3,30.12,SSW,198,10.0,20.0,77,0.00,,,0.00,VWS V14.01,2013-02-19 07:48:00,
2013-02-19 02:53:00,39.0,32.7,30.12,SW,228,5.0,20.0,78,0.00,,,0.00,VWS V14.01,2013-02-19 07:53:00,
2013-02-19 02:58:00,39.0,32.7,30.12,South,178,8.0,20.0,78,0.00,,,0.00,VWS V14.01,2013-02-19 07:58:00,
2013-02-19 03:03:00,39.1,32.8,30.12,SSW,205,11.0,17.0,78,0.00,,,0.00,VWS V14.01,2013-02-19 08:03:00,
2013-02-19 03:08:00,39.1,32.8,30.12,SSW,202,10.0,17.0,78,0.00,,,0.00,VWS V14.01,2013-02-19 08:08:00,
2013-02-19 03:13:00,39.1,32.8,30.12,SSW,196,11.0,17.0,78,0.00,,,0.00,VWS V14.01,2013-02-19 08:13:00,
2013-02-19 03:18:00,39.0,33.0,30.12,SSW,207,8.0,17.0,79,0.00,,,0.00,VWS V14.01,2013-02-19 08:18:00,
2013-02-19 03:23:00,39.1,33.2,30.11,South,186,12.0,17.0,79,0.00,,,0.00,VWS V14.01,2013-02-19 08:23:00,
2013-02-19 03:28:00,39.0,33.4,30.11,SSW,202,10.0,18.0,80,0.00,,,0.00,VWS V14.01,2013-02-19 08:28:00,
2013-02-19 03:30:00,39.4,33.1,30.11,SW,218,7.0,22.0,78,0.00,,,0.00,VWS V14.01,2013-02-19 08:30:00,
2013-02-19 03:33:00,39.0,33.4,30.11,SW,214,14.0,16.0,80,0.00,,,0.00,VWS V14.01,2013-02-19 08:33:00,
2013-02-19 03:38:00,39.1,33.2,30.11,SSW,193,15.0,18.0,79,0.00,,,0.00,VWS V14.01,2013-02-19 08:38:00,
2013-02-19 03:43:00,39.2,32.9,30.11,SSW,198,11.0,22.0,78,0.00,,,0.00,VWS V14.01,2013-02-19 08:43:00,
2013-02-19 03:48:00,39.3,33.0,30.11,South,191,9.0,22.0,78,0.00,,,0.00,VWS V14.01,2013-02-19 08:48:00,
2013-02-19 03:53:00,39.3,33.0,30.11,SSW,201,11.0,22.0,78,0.00,,,0.00,VWS V14.01,2013-02-19 08:53:00,
2013-02-19 03:58:00,39.4,33.1,30.11,South,189,16.0,22.0,78,0.00,,,0.00,VWS V14.01,2013-02-19 08:58:00,
2013-02-19 04:00:00,39.1,33.8,30.09,SSW,198,8.0,19.0,81,0.00,,,0.00,VWS V14.01,2013-02-19 09:00:00,
2013-02-19 04:04:00,39.3,33.3,30.11,SSW,201,9.0,22.0,79,0.00,,,0.00,VWS V14.01,2013-02-19 09:04:00,
2013-02-19 04:09:00,39.3,33.3,30.11,SSW,198,15.0,22.0,79,0.00,,,0.00,VWS V14.01,2013-02-19 09:09:00,
2013-02-19 04:14:00,39.3,33.3,30.11,SSW,192,13.0,22.0,79,0.00,,,0.00,VWS V14.01,2013-02-19 09:14:00,
2013-02-19 04:19:00,39.4,33.1,30.11,SSW,196,10.0,22.0,78,0.00,,,0.00,VWS V14.01,2013-02-19 09:19:00,
2013-02-19 04:24:00,39.4,33.1,30.11,SSW,207,9.0,22.0,78,0.00,,,0.00,VWS V14.01,2013-02-19 09:24:00,
2013-02-19 04:29:00,39.4,33.1,30.11,South,187,11.0,22.0,78,0.00,,,0.00,VWS V14.01,2013-02-19 09:29:00,
2013-02-19 04:30:00,39.3,34.0,30.08,SSE,168,11.0,18.0,81,0.00,,,0.00,VWS V14.01,2013-02-19 09:30:00,
2013-02-19 04:34:00,39.4,33.1,30.11,SW,232,7.0,19.0,78,0.00,,,0.00,VWS V14.01,2013-02-19 09:34:00,
2013-02-19 04:39:00,39.4,33.1,30.11,South,188,10.0,19.0,78,0.00,,,0.00,VWS V14.01,2013-02-19 09:39:00,
2013-02-19 04:44:00,39.4,33.1,30.10,SSW,210,7.0,19.0,78,0.00,,,0.00,VWS V14.01,2013-02-19 09:44:00,
2013-02-19 04:49:00,39.2,33.2,30.10,SSW,207,11.0,19.0,79,0.00,,,0.00,VWS V14.01,2013-02-19 09:49:00,
2013-02-19 04:54:00,39.2,33.6,30.09,SSW,197,9.0,19.0,80,0.00,,,0.00,VWS V14.01,2013-02-19 09:54:00,
2013-02-19 04:59:00,39.1,33.8,30.09,SSW,196,6.0,19.0,81,0.00,,,0.00,VWS V14.01,2013-02-19 09:59:00,
2013-02-19 05:00:00,39.4,34.1,30.07,SSW,203,7.0,22.0,81,0.00,,,0.00,VWS V14.01,2013-02-19 10:00:00,
2013-02-19 05:04:00,39.0,34.0,30.09,SSW,200,7.0,17.0,82,0.00,,,0.00,VWS V14.01,2013-02-19 10:04:00,
2013-02-19 05:09:00,39.0,34.0,30.08,South,188,11.0,17.0,82,0.00,,,0.00,VWS V14.01,2013-02-19 10:09:00,
2013-02-19 05:14:00,39.1,34.1,30.08,South,181,12.0,17.0,82,0.00,,,0.00,VWS V14.01,2013-02-19 10:14:00,
2013-02-19 05:19:00,39.2,33.9,30.08,SSW,198,11.0,18.0,81,0.00,,,0.00,VWS V14.01,2013-02-19 10:19:00,
2013-02-19 05:24:00,39.2,33.9,30.08,South,172,8.0,18.0,81,0.00,,,0.00,VWS V14.01,2013-02-19 10:24:00,
2013-02-19 05:29:00,39.2,33.9,30.08,SSW,205,15.0,18.0,81,0.00,,,0.00,VWS V14.01,2013-02-19 10:29:00,
2013-02-19 05:30:00,39.2,34.2,30.07,SSW,207,9.0,21.0,82,0.00,,,0.00,VWS V14.01,2013-02-19 10:30:00,
2013-02-19 05:35:00,39.2,33.9,30.07,South,185,8.0,15.0,81,0.00,,,0.00,VWS V14.01,2013-02-19 10:35:00,
2013-02-19 05:40:00,39.2,34.2,30.07,SSW,196,8.0,22.0,82,0.00,,,0.00,VWS V14.01,2013-02-19 10:40:00,
2013-02-19 05:45:00,39.2,33.9,30.07,SSW,197,9.0,22.0,81,0.00,,,0.00,VWS V14.01,2013-02-19 10:45:00,
2013-02-19 05:50:00,39.3,34.0,30.07,SSW,207,9.0,22.0,81,0.00,,,0.00,VWS V14.01,2013-02-19 10:50:00,
2013-02-19 05:55:00,39.3,34.0,30.07,SW,215,17.0,22.0,81,0.00,,,0.00,VWS V14.01,2013-02-19 10:55:00,
2013-02-19 06:00:00,39.3,34.0,30.07,South,177,12.0,22.0,81,0.00,,,0.00,VWS V14.01,2013-02-19 11:00:00,
2013-02-19 06:05:00,39.3,34.0,30.07,SW,217,18.0,21.0,81,0.00,,,0.00,VWS V14.01,2013-02-19 11:05:00,
2013-02-19 06:10:00,39.3,34.0,30.07,SSW,198,13.0,21.0,81,0.00,,,0.00,VWS V14.01,2013-02-19 11:10:00,
2013-02-19 06:15:00,39.2,33.9,30.07,SSW,209,7.0,21.0,81,0.00,,,0.00,VWS V14.01,2013-02-19 11:15:00,
2013-02-19 06:20:00,39.2,34.2,30.07,SSW,203,10.0,21.0,82,0.00,,,0.00,VWS V14.01,2013-02-19 11:20:00,
2013-02-19 06:25:00,39.2,34.2,30.07,SSW,192,11.0,21.0,82,0.00,,,0.00,VWS V14.01,2013-02-19 11:25:00,
2013-02-19 06:30:00,39.2,34.2,30.07,South,182,9.0,9.0,82,0.00,,,0.00,VWS V14.01,2013-02-19 11:30:00,
2013-02-19 06:35:00,39.3,34.0,30.07,South,175,10.0,20.0,81,0.00,,,0.00,VWS V14.01,2013-02-19 11:35:00,
2013-02-19 06:40:00,39.3,34.3,30.06,SW,218,14.0,20.0,82,0.00,,,0.00,VWS V14.01,2013-02-19 11:40:00,
2013-02-19 06:45:00,39.3,34.3,30.06,SSW,195,14.0,20.0,82,0.00,,,0.00,VWS V14.01,2013-02-19 11:45:00,
2013-02-19 06:51:00,39.2,34.2,30.06,South,178,9.0,20.0,82,0.00,,,0.00,VWS V14.01,2013-02-19 11:51:00,
2013-02-19 06:56:00,39.4,34.1,30.05,SW,222,9.0,20.0,81,0.00,,,0.00,VWS V14.01,2013-02-19 11:56:00,
2013-02-19 07:00:00,40.6,34.6,30.06,SW,225,19.0,21.0,79,0.00,,,0.00,VWS V14.01,2013-02-19 12:00:00,
2013-02-19 07:01:00,39.5,34.2,30.05,South,188,8.0,19.0,81,0.00,,,0.00,VWS V14.01,2013-02-19 12:01:00,
2013-02-19 07:06:00,39.6,34.3,30.05,SW,219,15.0,19.0,81,0.00,,,0.00,VWS V14.01,2013-02-19 12:06:00,
2013-02-19 07:11:00,39.8,34.5,30.05,SSW,202,8.0,21.0,81,0.00,,,0.00,VWS V14.01,2013-02-19 12:11:00,
2013-02-19 07:16:00,40.1,34.8,30.05,South,184,9.0,21.0,81,0.00,,,0.00,VWS V14.01,2013-02-19 12:16:00,
2013-02-19 07:21:00,40.3,34.6,30.06,SSW,198,15.0,21.0,80,0.00,,,0.00,VWS V14.01,2013-02-19 12:21:00,
2013-02-19 07:26:00,40.4,34.7,30.06,SSW,213,7.0,21.0,80,0.00,,,0.00,VWS V14.01,2013-02-19 12:26:00,
2013-02-19 07:30:00,41.8,35.1,30.04,SSW,206,13.0,23.0,77,0.00,,,0.00,VWS V14.01,2013-02-19 12:30:00,
2013-02-19 07:31:00,40.4,34.7,30.06,South,190,14.0,21.0,80,0.00,,,0.00,VWS V14.01,2013-02-19 12:31:00,
2013-02-19 07:36:00,40.5,34.5,30.06,South,180,15.0,21.0,79,0.00,,,0.00,VWS V14.01,2013-02-19 12:36:00,
2013-02-19 07:41:00,40.6,34.9,30.06,SSW,208,16.0,21.0,80,0.00,,,0.00,VWS V14.01,2013-02-19 12:41:00,
2013-02-19 07:46:00,40.6,34.6,30.06,SW,216,14.0,21.0,79,0.00,,,0.00,VWS V14.01,2013-02-19 12:46:00,
2013-02-19 07:51:00,40.6,34.6,30.06,SSW,200,15.0,21.0,79,0.00,,,0.00,VWS V14.01,2013-02-19 12:51:00,
2013-02-19 07:56:00,40.6,34.6,30.06,SSW,205,8.0,21.0,79,0.00,,,0.00,VWS V14.01,2013-02-19 12:56:00,
2013-02-19 08:00:00,42.0,35.7,30.03,South,187,9.0,21.0,78,0.00,,,0.00,VWS V14.01,2013-02-19 13:00:00,
2013-02-19 08:01:00,40.6,34.6,30.06,South,188,17.0,19.0,79,0.00,,,0.00,VWS V14.01,2013-02-19 13:01:00,
2013-02-19 08:06:00,40.6,34.3,30.06,South,188,17.0,22.0,78,0.00,,,0.00,VWS V14.01,2013-02-19 13:06:00,
2013-02-19 08:12:00,40.9,34.6,30.06,SSW,196,18.0,22.0,78,0.00,,,0.00,VWS V14.01,2013-02-19 13:12:00,
2013-02-19 08:17:00,41.4,34.7,30.05,South,188,15.0,22.0,77,0.00,,,0.00,VWS V14.01,2013-02-19 13:17:00,
2013-02-19 08:22:00,41.9,35.2,30.05,South,179,15.0,22.0,77,0.00,,,0.00,VWS V14.01,2013-02-19 13:22:00,
2013-02-19 08:27:00,41.8,35.1,30.05,SW,214,12.0,23.0,77,0.00,,,0.00,VWS V14.01,2013-02-19 13:27:00,
2013-02-19 08:30:00,42.0,36.6,30.02,SSW,194,13.0,19.0,81,0.00,,,0.00,VWS V14.01,2013-02-19 13:30:00,
2013-02-19 08:32:00,41.8,35.1,30.04,SSW,206,10.0,13.0,77,0.00,,,0.00,VWS V14.01,2013-02-19 13:32:00,
2013-02-19 08:37:00,42.0,35.3,30.03,SSW,209,11.0,18.0,77,0.00,,,0.00,VWS V14.01,2013-02-19 13:37:00,
2013-02-19 08:42:00,41.9,35.2,30.03,WSW,237,12.0,18.0,77,0.00,,,0.00,VWS V14.01,2013-02-19 13:42:00,
2013-02-19 08:47:00,41.8,35.5,30.04,South,189,17.0,20.0,78,0.00,,,0.00,VWS V14.01,2013-02-19 13:47:00,
2013-02-19 08:52:00,41.9,35.2,30.03,SSW,204,4.0,21.0,77,0.00,,,0.00,VWS V14.01,2013-02-19 13:52:00,
2013-02-19 08:57:00,42.0,35.3,30.03,SSW,213,6.0,21.0,77,0.00,,,0.00,VWS V14.01,2013-02-19 13:57:00,
2013-02-19 09:00:00,42.6,37.5,30.01,South,191,16.0,18.0,82,0.00,,,0.00,VWS V14.01,2013-02-19 14:00:00,
2013-02-19 09:02:00,42.0,35.7,30.03,SSW,200,15.0,19.0,78,0.00,,,0.00,VWS V14.01,2013-02-19 14:02:00,
2013-02-19 09:07:00,42.0,35.7,30.03,South,176,10.0,19.0,78,0.00,,,0.00,VWS V14.01,2013-02-19 14:07:00,
2013-02-19 09:12:00,42.1,36.1,30.02,SSW,200,9.0,19.0,79,0.00,,,0.00,VWS V14.01,2013-02-19 14:12:00,
2013-02-19 09:17:00,42.1,36.1,30.02,SSW,204,11.0,19.0,79,0.00,,,0.00,VWS V14.01,2013-02-19 14:17:00,
2013-02-19 09:22:00,42.1,36.4,30.02,SSW,198,6.0,19.0,80,0.00,,,0.00,VWS V14.01,2013-02-19 14:22:00,
2013-02-19 09:27:00,42.1,36.4,30.02,SW,219,12.0,19.0,80,0.00,,,0.00,VWS V14.01,2013-02-19 14:27:00,
2013-02-19 09:32:00,42.1,36.7,30.02,SW,215,13.0,18.0,81,0.00,,,0.00,VWS V14.01,2013-02-19 14:32:00,
2013-02-19 09:38:00,42.1,36.7,30.02,South,179,8.0,18.0,81,0.00,,,0.00,VWS V14.01,2013-02-19 14:38:00,
2013-02-19 09:43:00,42.2,36.8,30.01,South,190,18.0,18.0,81,0.00,,,0.00,VWS V14.01,2013-02-19 14:43:00,
2013-02-19 09:48:00,42.2,36.8,30.01,SW,216,11.0,18.0,81,0.00,,,0.00,VWS V14.01,2013-02-19 14:48:00,
2013-02-19 09:53:00,42.2,37.1,30.01,South,184,7.0,18.0,82,0.00,,,0.00,VWS V14.01,2013-02-19 14:53:00,
2013-02-19 09:58:00,42.3,37.2,30.01,South,177,10.0,18.0,82,0.00,,,0.00,VWS V14.01,2013-02-19 14:58:00,
2013-02-19 10:00:00,46.6,39.5,29.99,South,173,17.0,25.0,76,0.00,,,0.00,VWS V14.01,2013-02-19 15:00:00,
2013-02-19 10:03:00,43.1,38.0,30.01,SSW,213,8.0,16.0,82,0.00,,,0.00,VWS V14.01,2013-02-19 15:03:00,
2013-02-19 10:08:00,44.1,38.3,30.01,South,183,14.0,18.0,80,0.00,,,0.00,VWS V14.01,2013-02-19 15:08:00,
2013-02-19 10:13:00,44.9,38.8,30.00,SW,223,11.0,18.0,79,0.00,,,0.00,VWS V14.01,2013-02-19 15:13:00,
2013-02-19 10:18:00,45.4,39.0,30.00,SSW,193,17.0,22.0,78,0.00,,,0.00,VWS V14.01,2013-02-19 15:18:00,
2013-02-19 10:23:00,45.6,39.2,30.00,SSW,211,9.0,22.0,78,0.00,,,0.00,VWS V14.01,2013-02-19 15:23:00,
2013-02-19 10:28:00,45.6,39.2,30.00,SSW,213,12.0,22.0,78,0.00,,,0.00,VWS V14.01,2013-02-19 15:28:00,
2013-02-19 10:30:00,45.5,39.4,29.97,SSW,197,8.0,23.0,79,0.00,,,0.00,VWS V14.01,2013-02-19 15:30:00,
2013-02-19 10:33:00,45.7,39.2,30.00,SSW,211,8.0,23.0,78,0.00,,,0.00,VWS V14.01,2013-02-19 15:33:00,
2013-02-19 10:38:00,45.3,38.9,30.00,SSW,200,16.0,24.0,78,0.00,,,0.00,VWS V14.01,2013-02-19 15:38:00,
2013-02-19 10:43:00,44.9,38.8,30.00,SW,219,10.0,24.0,79,0.00,,,0.00,VWS V14.01,2013-02-19 15:43:00,
2013-02-19 10:49:00,45.1,39.0,30.00,SSW,208,18.0,25.0,79,0.00,,,0.00,VWS V14.01,2013-02-19 15:49:00,
2013-02-19 10:54:00,45.9,39.4,29.99,SW,216,14.0,25.0,78,0.00,,,0.00,VWS V14.01,2013-02-19 15:54:00,
2013-02-19 10:59:00,46.6,39.5,29.99,SSE,163,15.0,25.0,76,0.00,,,0.00,VWS V14.01,2013-02-19 15:59:00,
2013-02-19 11:00:00,45.1,39.6,29.94,South,184,7.0,24.0,81,0.00,,,0.00,VWS V14.01,2013-02-19 16:00:00,
2013-02-19 11:04:00,46.5,39.4,29.99,South,169,10.0,22.0,76,0.00,,,0.00,VWS V14.01,2013-02-19 16:04:00,
2013-02-19 11:09:00,46.1,39.0,29.98,SSW,209,12.0,22.0,76,0.00,,,0.00,VWS V14.01,2013-02-19 16:09:00,
2013-02-19 11:14:00,45.4,39.0,29.98,South,180,18.0,23.0,78,0.00,,,0.00,VWS V14.01,2013-02-19 16:14:00,
2013-02-19 11:19:00,45.1,39.0,29.98,SSW,211,19.0,23.0,79,0.00,,,0.00,VWS V14.01,2013-02-19 16:19:00,
2013-02-19 11:24:00,45.2,39.1,29.97,South,182,6.0,23.0,79,0.00,,,0.00,VWS V14.01,2013-02-19 16:24:00,
2013-02-19 11:29:00,45.5,39.4,29.97,SSW,208,15.0,23.0,79,0.00,,,0.00,VWS V14.01,2013-02-19 16:29:00,
2013-02-19 11:30:00,44.9,40.1,29.93,SW,217,13.0,22.0,83,0.00,,,0.00,VWS V14.01,2013-02-19 16:30:00,
2013-02-19 11:34:00,45.4,39.3,29.97,SSW,196,15.0,20.0,79,0.00,,,0.00,VWS V14.01,2013-02-19 16:34:00,
2013-02-19 11:40:00,45.6,39.5,29.96,SSW,211,5.0,20.0,79,0.00,,,0.00,VWS V14.01,2013-02-19 16:40:00,
2013-02-19 11:45:00,46.1,40.0,29.96,South,191,4.0,20.0,79,0.00,,,0.00,VWS V14.01,2013-02-19 16:45:00,
2013-02-19 11:50:00,45.8,39.7,29.95,South,189,21.0,21.0,79,0.00,,,0.00,VWS V14.01,2013-02-19 16:50:00,
2013-02-19 11:55:00,45.3,39.5,29.95,SSW,196,15.0,24.0,80,0.00,,,0.00,VWS V14.01,2013-02-19 16:55:00,
2013-02-19 12:00:00,45.1,39.6,29.94,SW,226,13.0,24.0,81,0.00,,,0.00,VWS V14.01,2013-02-19 17:00:00,
2013-02-19 12:05:00,45.1,39.6,29.94,South,173,7.0,20.0,81,0.00,,,0.00,VWS V14.01,2013-02-19 17:05:00,
2013-02-19 12:10:00,45.0,39.8,29.94,SW,232,8.0,20.0,82,0.00,,,0.00,VWS V14.01,2013-02-19 17:10:00,
2013-02-19 12:15:00,45.0,39.8,29.94,SW,217,9.0,20.0,82,0.00,,,0.00,VWS V14.01,2013-02-19 17:15:00,
2013-02-19 12:20:00,44.9,39.8,29.94,South,186,9.0,22.0,82,0.00,,,0.00,VWS V14.01,2013-02-19 17:20:00,
2013-02-19 12:25:00,44.8,39.7,29.94,WSW,240,14.0,22.0,82,0.00,,,0.00,VWS V14.01,2013-02-19 17:25:00,
2013-02-19 12:30:00,44.9,40.1,29.93,SW,222,14.0,14.0,83,0.00,,,0.00,VWS V14.01,2013-02-19 17:30:00,
2013-02-19 12:36:00,44.9,40.1,29.92,SSW,195,12.0,20.0,83,0.00,,,0.00,VWS V14.01,2013-02-19 17:36:00,
2013-02-19 12:41:00,45.0,40.2,29.93,South,191,13.0,21.0,83,0.00,,,0.00,VWS V14.01,2013-02-19 17:41:00,
2013-02-19 12:46:00,44.9,40.4,29.93,SW,215,10.0,21.0,84,0.00,,,0.00,VWS V14.01,2013-02-19 17:46:00,
2013-02-19 12:51:00,44.5,40.6,29.92,South,189,12.0,21.0,86,0.00,,,0.00,VWS V14.01,2013-02-19 17:51:00,
2013-02-19 12:56:00,44.3,40.7,29.91,SSW,200,11.0,21.0,87,0.00,,,0.00,VWS V14.01,2013-02-19 17:56:00,
2013-02-19 13:00:00,43.0,40.8,29.85,SSW,207,11.0,18.0,92,0.05,,,0.05,VWS V14.01,2013-02-19 18:00:00,
2013-02-19 13:01:00,44.2,40.6,29.91,WSW,238,8.0,14.0,87,0.00,,,0.00,VWS V14.01,2013-02-19 18:01:00,
2013-02-19 13:06:00,44.0,40.7,29.90,SW,216,11.0,18.0,88,0.00,,,0.00,VWS V14.01,2013-02-19 18:06:00,
2013-02-19 13:11:00,43.7,40.4,29.90,SSW,208,12.0,18.0,88,0.01,,,0.01,VWS V14.01,2013-02-19 18:11:00,
2013-02-19 13:16:00,43.4,40.4,29.90,South,190,6.0,18.0,89,0.02,,,0.02,VWS V14.01,2013-02-19 18:16:00,
2013-02-19 13:21:00,43.2,40.2,29.89,SW,220,14.0,18.0,89,0.02,,,0.02,VWS V14.01,2013-02-19 18:21:00,
2013-02-19 13:26:00,42.9,40.2,29.88,SSE,161,11.0,18.0,90,0.03,,,0.03,VWS V14.01,2013-02-19 18:26:00,
2013-02-19 13:30:00,44.4,41.9,29.83,SW,218,12.0,22.0,91,0.06,,,0.06,VWS V14.01,2013-02-19 18:30:00,
2013-02-19 13:31:00,42.4,39.7,29.87,SSE,161,11.0,14.0,90,0.03,,,0.03,VWS V14.01,2013-02-19 18:31:00,
2013-02-19 13:36:00,42.2,39.8,29.87,South,182,11.0,15.0,91,0.04,,,0.04,VWS V14.01,2013-02-19 18:36:00,
2013-02-19 13:41:00,42.3,39.9,29.86,SSW,194,9.0,18.0,91,0.04,,,0.04,VWS V14.01,2013-02-19 18:41:00,
2013-02-19 13:47:00,42.5,40.3,29.85,SSW,198,8.0,18.0,92,0.05,,,0.05,VWS V14.01,2013-02-19 18:47:00,
2013-02-19 13:52:00,42.6,40.4,29.85,SSW,197,7.0,18.0,92,0.05,,,0.05,VWS V14.01,2013-02-19 18:52:00,
2013-02-19 13:57:00,42.8,40.6,29.85,SW,216,8.0,18.0,92,0.05,,,0.05,VWS V14.01,2013-02-19 18:57:00,
2013-02-19 14:02:00,43.1,40.9,29.85,SSW,200,10.0,15.0,92,0.05,,,0.05,VWS V14.01,2013-02-19 19:02:00,
2013-02-19 14:07:00,43.4,41.2,29.84,South,190,12.0,18.0,92,0.05,,,0.05,VWS V14.01,2013-02-19 19:07:00,
2013-02-19 14:12:00,43.7,41.5,29.84,South,186,8.0,22.0,92,0.05,,,0.05,VWS V14.01,2013-02-19 19:12:00,
2013-02-19 14:17:00,43.8,41.6,29.84,SSW,205,13.0,22.0,92,0.05,,,0.05,VWS V14.01,2013-02-19 19:17:00,
2013-02-19 14:22:00,44.0,41.8,29.83,South,183,8.0,22.0,92,0.05,,,0.05,VWS V14.01,2013-02-19 19:22:00,
2013-02-19 14:27:00,44.3,41.8,29.83,SW,225,13.0,22.0,91,0.05,,,0.05,VWS V14.01,2013-02-19 19:27:00,
2013-02-19 14:30:00,43.3,40.8,29.79,South,180,13.0,22.0,91,0.06,,,0.09,VWS V14.01,2013-02-19 19:30:00,
2013-02-19 14:32:00,44.5,42.0,29.83,SW,227,9.0,16.0,91,0.03,,,0.06,VWS V14.01,2013-02-19 19:32:00,
2013-02-19 14:38:00,44.8,42.3,29.83,South,190,11.0,19.0,91,0.03,,,0.06,VWS V14.01,2013-02-19 19:38:00,
2013-02-19 14:43:00,45.1,42.6,29.82,SSW,195,11.0,19.0,91,0.04,,,0.07,VWS V14.01,2013-02-19 19:43:00,
2013-02-19 14:48:00,45.2,42.7,29.81,SW,214,16.0,19.0,91,0.04,,,0.07,VWS V14.01,2013-02-19 19:48:00,
2013-02-19 14:53:00,45.5,43.0,29.81,South,190,10.0,20.0,91,0.04,,,0.07,VWS V14.01,2013-02-19 19:53:00,
2013-02-19 14:58:00,45.3,42.5,29.80,South,183,19.0,20.0,90,0.04,,,0.07,VWS V14.01,2013-02-19 19:58:00,
2013-02-19 15:00:00,43.5,41.6,29.77,SSW,197,16.0,20.0,93,0.05,,,0.11,VWS V14.01,2013-02-19 20:00:00,
2013-02-19 15:03:00,45.1,42.1,29.80,South,190,18.0,22.0,89,0.04,,,0.07,VWS V14.01,2013-02-19 20:03:00,
2013-02-19 15:08:00,44.6,41.8,29.80,SSW,196,10.0,22.0,90,0.04,,,0.07,VWS V14.01,2013-02-19 20:08:00,
2013-02-19 15:13:00,44.2,41.5,29.79,SSW,199,8.0,22.0,90,0.04,,,0.07,VWS V14.01,2013-02-19 20:13:00,
2013-02-19 15:18:00,44.0,41.3,29.79,South,180,14.0,22.0,90,0.05,,,0.08,VWS V14.01,2013-02-19 20:18:00,
2013-02-19 15:23:00,43.6,41.2,29.79,SSW,198,12.0,22.0,91,0.05,,,0.08,VWS V14.01,2013-02-19 20:23:00,
2013-02-19 15:28:00,43.3,40.8,29.79,South,186,8.0,22.0,91,0.05,,,0.08,VWS V14.01,2013-02-19 20:28:00,
2013-02-19 15:30:00,43.6,42.0,29.74,South,186,15.0,22.0,94,0.04,,,0.13,VWS V14.01,2013-02-19 20:30:00,
2013-02-19 15:33:00,43.2,41.0,29.79,SSW,197,17.0,18.0,92,0.03,,,0.09,VWS V14.01,2013-02-19 20:33:00,
2013-02-19 15:38:00,43.1,40.9,29.78,SSW,200,12.0,18.0,92,0.03,,,0.09,VWS V14.01,2013-02-19 20:38:00,
2013-02-19 15:43:00,43.1,41.2,29.78,SSW,192,14.0,18.0,93,0.04,,,0.10,VWS V14.01,2013-02-19 20:43:00,
2013-02-19 15:48:00,43.3,41.4,29.77,SW,230,10.0,19.0,93,0.04,,,0.10,VWS V14.01,2013-02-19 20:48:00,
2013-02-19 15:53:00,43.6,41.7,29.77,South,178,10.0,19.0,93,0.04,,,0.10,VWS V14.01,2013-02-19 20:53:00,
2013-02-19 15:58:00,43.6,41.7,29.77,South,181,11.0,20.0,93,0.05,,,0.11,VWS V14.01,2013-02-19 20:58:00,
2013-02-19 16:00:00,43.5,41.9,29.72,South,184,10.0,22.0,94,0.08,,,0.17,VWS V14.01,2013-02-19 21:00:00,
2013-02-19 16:03:00,43.4,41.5,29.76,SSW,206,13.0,18.0,93,0.02,,,0.11,VWS V14.01,2013-02-19 21:03:00,
2013-02-19 16:08:00,43.4,41.5,29.76,SSW,207,13.0,20.0,93,0.02,,,0.11,VWS V14.01,2013-02-19 21:08:00,
2013-02-19 16:13:00,43.4,41.5,29.75,South,180,17.0,22.0,93,0.03,,,0.12,VWS V14.01,2013-02-19 21:13:00,
2013-02-19 16:18:00,43.5,41.6,29.74,South,186,13.0,22.0,93,0.03,,,0.12,VWS V14.01,2013-02-19 21:18:00,
2013-02-19 16:24:00,43.5,41.9,29.74,South,180,10.0,22.0,94,0.04,,,0.13,VWS V14.01,2013-02-19 21:24:00,
2013-02-19 16:29:00,43.6,42.0,29.74,South,184,10.0,22.0,94,0.04,,,0.13,VWS V14.01,2013-02-19 21:29:00,
2013-02-19 16:30:00,43.6,42.3,29.70,SSW,193,8.0,20.0,95,0.06,,,0.17,VWS V14.01,2013-02-19 21:30:00,
2013-02-19 16:34:00,43.6,42.0,29.74,SSW,195,9.0,21.0,94,0.04,,,0.13,VWS V14.01,2013-02-19 21:34:00,
2013-02-19 16:39:00,43.6,42.0,29.74,SSE,159,14.0,21.0,94,0.05,,,0.14,VWS V14.01,2013-02-19 21:39:00,
2013-02-19 16:44:00,43.4,41.8,29.73,South,175,21.0,22.0,94,0.05,,,0.14,VWS V14.01,2013-02-19 21:44:00,
2013-02-19 16:49:00,43.4,41.8,29.73,SSW,196,19.0,22.0,94,0.06,,,0.15,VWS V14.01,2013-02-19 21:49:00,
2013-02-19 16:54:00,43.5,41.9,29.73,South,190,13.0,22.0,94,0.07,,,0.16,VWS V14.01,2013-02-19 21:54:00,
2013-02-19 16:59:00,43.5,41.9,29.72,SSW,195,9.0,22.0,94,0.08,,,0.17,VWS V14.01,2013-02-19 21:59:00,
2013-02-19 17:00:00,44.1,42.8,29.70,SSW,193,14.0,22.0,95,0.07,,,0.20,VWS V14.01,2013-02-19 22:00:00,
2013-02-19 17:04:00,43.4,41.8,29.71,SSE,167,9.0,18.0,94,0.06,,,0.17,VWS V14.01,2013-02-19 22:04:00,
2013-02-19 17:09:00,43.4,42.1,29.71,South,188,14.0,18.0,95,0.06,,,0.17,VWS V14.01,2013-02-19 22:09:00,
2013-02-19 17:14:00,43.5,42.2,29.70,SSE,154,12.0,18.0,95,0.06,,,0.17,VWS V14.01,2013-02-19 22:14:00,
2013-02-19 17:19:00,43.5,42.2,29.70,South,177,11.0,18.0,95,0.06,,,0.17,VWS V14.01,2013-02-19 22:19:00,
2013-02-19 17:24:00,43.5,42.2,29.70,South,190,14.0,20.0,95,0.06,,,0.17,VWS V14.01,2013-02-19 22:24:00,
2013-02-19 17:29:00,43.6,42.3,29.70,SSW,212,7.0,20.0,95,0.06,,,0.17,VWS V14.01,2013-02-19 22:29:00,
2013-02-19 17:30:00,44.7,43.6,29.69,SSW,196,11.0,26.0,96,0.07,,,0.24,VWS V14.01,2013-02-19 22:30:00,
2013-02-19 17:34:00,43.8,42.5,29.70,WSW,237,7.0,18.0,95,0.04,,,0.17,VWS V14.01,2013-02-19 22:34:00,
2013-02-19 17:39:00,43.8,42.5,29.70,SSW,207,4.0,18.0,95,0.04,,,0.17,VWS V14.01,2013-02-19 22:39:00,
2013-02-19 17:44:00,43.8,42.5,29.70,SW,215,12.0,18.0,95,0.05,,,0.18,VWS V14.01,2013-02-19 22:44:00,
2013-02-19 17:49:00,43.8,42.5,29.70,South,189,15.0,18.0,95,0.06,,,0.19,VWS V14.01,2013-02-19 22:49:00,
2013-02-19 17:54:00,43.9,42.6,29.70,South,188,6.0,19.0,95,0.07,,,0.20,VWS V14.01,2013-02-19 22:54:00,
2013-02-19 17:59:00,44.1,42.8,29.70,SSW,207,8.0,22.0,95,0.07,,,0.20,VWS V14.01,2013-02-19 22:59:00,
2013-02-19 18:00:00,44.7,43.4,29.68,SSW,206,11.0,20.0,95,0.07,,,0.24,VWS V14.01,2013-02-19 23:00:00,
2013-02-19 18:05:00,44.1,42.8,29.69,SSW,195,14.0,17.0,95,0.04,,,0.21,VWS V14.01,2013-02-19 23:05:00,
2013-02-19 18:10:00,44.1,42.8,29.69,South,190,14.0,17.0,95,0.05,,,0.22,VWS V14.01,2013-02-19 23:10:00,
2013-02-19 18:15:00,44.1,42.8,29.69,South,188,26.0,26.0,95,0.06,,,0.23,VWS V14.01,2013-02-19 23:15:00,
2013-02-19 18:20:00,44.3,43.0,29.69,SW,217,10.0,26.0,95,0.06,,,0.23,VWS V14.01,2013-02-19 23:20:00,
2013-02-19 18:25:00,44.2,42.9,29.69,SSW,206,7.0,26.0,95,0.07,,,0.24,VWS V14.01,2013-02-19 23:25:00,
2013-02-19 18:30:00,44.7,43.6,29.69,SW,223,11.0,26.0,96,0.07,,,0.24,VWS V14.01,2013-02-19 23:30:00,
2013-02-19 18:35:00,45.0,43.9,29.69,SSW,209,11.0,20.0,96,0.07,,,0.24,VWS V14.01,2013-02-19 23:35:00,
2013-02-19 18:40:00,45.4,44.3,29.68,South,181,12.0,20.0,96,0.07,,,0.24,VWS V14.01,2013-02-19 23:40:00,
2013-02-19 18:45:00,45.4,44.3,29.68,SSW,195,7.0,20.0,96,0.07,,,0.24,VWS V14.01,2013-02-19 23:45:00,
2013-02-19 18:50:00,45.3,44.0,29.68,SW,235,8.0,20.0,95,0.07,,,0.24,VWS V14.01,2013-02-19 23:50:00,
2013-02-19 18:55:00,45.1,43.8,29.68,SSW,199,9.0,20.0,95,0.07,,,0.24,VWS V14.01,2013-02-19 23:55:00,
2013-02-19 19:00:00,44.7,43.4,29.68,SSW,197,7.0,11.0,95,0.04,,,0.24,VWS V14.01,2013-02-20 00:00:00,
2013-02-19 19:05:00,44.7,43.4,29.68,SSW,197,9.0,21.0,95,0.04,,,0.24,VWS V14.01,2013-02-20 00:05:00,
2013-02-19 19:11:00,44.6,43.3,29.68,SSW,209,11.0,21.0,95,0.04,,,0.24,VWS V14.01,2013-02-20 00:11:00,
2013-02-19 19:16:00,44.3,43.0,29.67,SW,223,5.0,21.0,95,0.04,,,0.24,VWS V14.01,2013-02-20 00:16:00,
2013-02-19 19:21:00,44.2,42.9,29.67,SW,219,8.0,21.0,95,0.04,,,0.24,VWS V14.01,2013-02-20 00:21:00,
2013-02-19 19:26:00,44.2,42.9,29.67,SSW,205,7.0,21.0,95,0.04,,,0.24,VWS V14.01,2013-02-20 00:26:00,
2013-02-19 19:30:00,45.7,43.5,29.68,West,261,14.0,22.0,92,0.00,,,0.24,VWS V14.01,2013-02-20 00:30:00,
2013-02-19 19:31:00,44.2,43.1,29.67,SSW,204,13.0,13.0,96,0.00,,,0.24,VWS V14.01,2013-02-20 00:31:00,
2013-02-19 19:36:00,44.2,43.1,29.67,SSW,209,8.0,16.0,96,0.00,,,0.24,VWS V14.01,2013-02-20 00:36:00,
2013-02-19 19:41:00,44.0,42.7,29.67,SW,226,12.0,16.0,95,0.00,,,0.24,VWS V14.01,2013-02-20 00:41:00,
2013-02-19 19:46:00,43.7,42.4,29.67,SW,226,7.0,16.0,95,0.00,,,0.24,VWS V14.01,2013-02-20 00:46:00,
2013-02-19 19:51:00,43.5,42.4,29.68,SW,227,9.0,17.0,96,0.00,,,0.24,VWS V14.01,2013-02-20 00:51:00,
2013-02-19 19:56:00,43.7,42.6,29.67,SW,225,9.0,17.0,96,0.00,,,0.24,VWS V14.01,2013-02-20 00:56:00,
2013-02-19 20:00:00,44.4,41.4,29.69,WSW,251,12.0,25.0,89,0.00,,,0.24,VWS V14.01,2013-02-20 01:00:00,
2013-02-19 20:01:00,43.7,42.6,29.67,SW,227,9.0,14.0,96,0.00,,,0.24,VWS V14.01,2013-02-20 01:01:00,
2013-02-19 20:06:00,44.2,43.1,29.67,WSW,239,10.0,17.0,96,0.00,,,0.24,VWS V14.01,2013-02-20 01:06:00,
2013-02-19 20:11:00,44.1,43.0,29.67,WSW,242,7.0,17.0,96,0.00,,,0.24,VWS V14.01,2013-02-20 01:11:00,
2013-02-19 20:16:00,44.4,43.3,29.67,SW,230,8.0,17.0,96,0.00,,,0.24,VWS V14.01,2013-02-20 01:16:00,
2013-02-19 20:21:00,45.0,43.7,29.67,West,261,12.0,17.0,95,0.00,,,0.24,VWS V14.01,2013-02-20 01:21:00,
2013-02-19 20:27:00,45.3,43.7,29.68,WSW,258,13.0,19.0,94,0.00,,,0.24,VWS V14.01,2013-02-20 01:27:00,
2013-02-19 20:30:00,43.8,40.8,29.70,WNW,295,12.0,21.0,89,0.00,,,0.24,VWS V14.01,2013-02-20 01:30:00,
2013-02-19 20:32:00,45.8,43.3,29.68,WSW,248,12.0,22.0,91,0.00,,,0.24,VWS V14.01,2013-02-20 01:32:00,
2013-02-19 20:37:00,45.2,42.2,29.68,West,259,16.0,25.0,89,0.00,,,0.24,VWS V14.01,2013-02-20 01:37:00,
2013-02-19 20:42:00,45.0,42.2,29.68,West,263,14.0,25.0,90,0.00,,,0.24,VWS V14.01,2013-02-20 01:42:00,
2013-02-19 20:47:00,44.9,41.9,29.68,WSW,241,10.0,25.0,89,0.00,,,0.24,VWS V14.01,2013-02-20 01:47:00,
2013-02-19 20:52:00,44.7,41.7,29.69,WSW,252,12.0,25.0,89,0.00,,,0.24,VWS V14.01,2013-02-20 01:52:00,
2013-02-19 20:57:00,44.2,41.2,29.69,WSW,258,11.0,25.0,89,0.00,,,0.24,VWS V14.01,2013-02-20 01:57:00,
2013-02-19 21:00:00,43.2,39.9,29.71,WNW,284,9.0,20.0,88,0.00,,,0.24,VWS V14.01,2013-02-20 02:00:00,
2013-02-19 21:02:00,44.5,41.5,29.69,West,263,12.0,21.0,89,0.00,,,0.24,VWS V14.01,2013-02-20 02:02:00,
2013-02-19 21:07:00,44.3,41.3,29.69,WNW,294,12.0,21.0,89,0.00,,,0.24,VWS V14.01,2013-02-20 02:07:00,
2013-02-19 21:12:00,44.1,40.8,29.69,West,261,8.0,21.0,88,0.00,,,0.24,VWS V14.01,2013-02-20 02:12:00,
2013-02-19 21:17:00,44.3,41.0,29.70,West,270,14.0,21.0,88,0.00,,,0.24,VWS V14.01,2013-02-20 02:17:00,
2013-02-19 21:22:00,44.1,40.8,29.70,West,265,10.0,21.0,88,0.00,,,0.24,VWS V14.01,2013-02-20 02:22:00,
2013-02-19 21:27:00,43.8,40.8,29.70,WSW,255,10.0,21.0,89,0.00,,,0.24,VWS V14.01,2013-02-20 02:27:00,
2013-02-19 21:30:00,42.5,38.9,29.71,West,267,12.0,21.0,87,0.00,,,0.24,VWS V14.01,2013-02-20 02:30:00,
2013-02-19 21:32:00,43.7,40.7,29.70,West,263,10.0,15.0,89,0.00,,,0.24,VWS V14.01,2013-02-20 02:32:00,
2013-02-19 21:37:00,43.5,40.5,29.70,West,275,12.0,17.0,89,0.00,,,0.24,VWS V14.01,2013-02-20 02:37:00,
2013-02-19 21:42:00,43.3,40.3,29.70,WSW,257,10.0,17.0,89,0.00,,,0.24,VWS V14.01,2013-02-20 02:42:00,
2013-02-19 21:47:00,43.3,40.3,29.70,West,261,12.0,18.0,89,0.00,,,0.24,VWS V14.01,2013-02-20 02:47:00,
2013-02-19 21:53:00,43.2,40.2,29.70,West,277,12.0,18.0,89,0.00,,,0.24,VWS V14.01,2013-02-20 02:53:00,
2013-02-19 21:58:00,43.1,40.1,29.71,West,272,12.0,20.0,89,0.00,,,0.24,VWS V14.01,2013-02-20 02:58:00,
2013-02-19 22:00:00,41.7,37.5,29.72,West,263,11.0,20.0,85,0.00,,,0.24,VWS V14.01,2013-02-20 03:00:00,
2013-02-19 22:03:00,43.1,39.8,29.71,West,266,9.0,19.0,88,0.00,,,0.24,VWS V14.01,2013-02-20 03:03:00,
2013-02-19 22:08:00,42.9,39.6,29.71,WNW,283,12.0,21.0,88,0.00,,,0.24,VWS V14.01,2013-02-20 03:08:00,
2013-02-19 22:13:00,42.9,39.6,29.71,WNW,298,12.0,21.0,88,0.00,,,0.24,VWS V14.01,2013-02-20 03:13:00,
2013-02-19 22:18:00,42.7,39.4,29.71,NW,307,9.0,21.0,88,0.00,,,0.24,VWS V14.01,2013-02-20 03:18:00,
2013-02-19 22:23:00,42.4,39.1,29.71,West,277,10.0,21.0,88,0.00,,,0.24,VWS V14.01,2013-02-20 03:23:00,
2013-02-19 22:28:00,42.4,39.1,29.71,NW,323,13.0,21.0,88,0.00,,,0.24,VWS V14.01,2013-02-20 03:28:00,
2013-02-19 22:30:00,41.4,35.1,29.73,West,271,9.0,24.0,78,0.00,,,0.24,VWS V14.01,2013-02-20 03:30:00,
2013-02-19 22:33:00,42.4,38.5,29.71,WNW,294,7.0,20.0,86,0.00,,,0.24,VWS V14.01,2013-02-20 03:33:00,
2013-02-19 22:38:00,42.2,38.0,29.71,NW,306,15.0,20.0,85,0.00,,,0.24,VWS V14.01,2013-02-20 03:38:00,
2013-02-19 22:43:00,42.2,37.7,29.72,West,279,11.0,20.0,84,0.00,,,0.24,VWS V14.01,2013-02-20 03:43:00,
2013-02-19 22:49:00,42.2,37.7,29.72,NW,304,19.0,20.0,84,0.00,,,0.24,VWS V14.01,2013-02-20 03:49:00,
2013-02-19 22:54:00,42.1,37.6,29.72,West,280,10.0,20.0,84,0.00,,,0.24,VWS V14.01,2013-02-20 03:54:00,
2013-02-19 22:59:00,41.9,37.7,29.72,WNW,301,11.0,20.0,85,0.00,,,0.24,VWS V14.01,2013-02-20 03:59:00,
2013-02-19 23:00:00,40.1,33.5,29.74,West,278,13.0,21.0,77,0.00,,,0.24,VWS V14.01,2013-02-20 04:00:00,
2013-02-19 23:04:00,41.9,37.1,29.72,NW,304,13.0,19.0,83,0.00,,,0.24,VWS V14.01,2013-02-20 04:04:00,
2013-02-19 23:09:00,41.8,36.7,29.72,WNW,291,18.0,20.0,82,0.00,,,0.24,VWS V14.01,2013-02-20 04:09:00,
2013-02-19 23:14:00,41.8,36.1,29.73,West,275,13.0,20.0,80,0.00,,,0.24,VWS V14.01,2013-02-20 04:14:00,
2013-02-19 23:19:00,41.6,35.6,29.73,WNW,300,14.0,20.0,79,0.00,,,0.24,VWS V14.01,2013-02-20 04:19:00,
2013-02-19 23:24:00,41.4,35.1,29.73,West,281,13.0,20.0,78,0.00,,,0.24,VWS V14.01,2013-02-20 04:24:00,
2013-02-19 23:29:00,41.5,35.2,29.73,West,276,13.0,24.0,78,0.00,,,0.24,VWS V14.01,2013-02-20 04:29:00,
2013-02-19 23:30:00,39.4,32.5,29.74,West,273,8.0,17.0,76,0.00,,,0.00,VWS V14.01,2013-02-20 04:30:00,
2013-02-19 23:34:00,41.2,34.9,29.73,NW,305,13.0,17.0,78,0.00,,,0.24,VWS V14.01,2013-02-20 04:34:00,
2013-02-19 23:39:00,41.1,34.5,29.73,WNW,299,10.0,21.0,77,0.00,,,0.24,VWS V14.01,2013-02-20 04:39:00,
2013-02-19 23:44:00,40.9,34.3,29.74,West,279,10.0,21.0,77,0.00,,,0.24,VWS V14.01,2013-02-20 04:44:00,
2013-02-19 23:49:00,40.7,33.7,29.74,WNW,298,8.0,21.0,76,0.00,,,0.24,VWS V14.01,2013-02-20 04:49:00,
2013-02-19 23:54:00,40.3,33.7,29.74,West,265,10.0,21.0,77,0.00,,,0.24,VWS V14.01,2013-02-20 04:54:00,
2013-02-19 23:59:00,40.1,33.5,29.74,WNW,294,12.0,21.0,77,0.00,,,0.24,VWS V14.01,2013-02-20 04:59:00,